sensor_id;sensor_type;location;lat;lon;timestamp;P1;durP1;ratioP1;P2;durP2;ratioP2
3271;SDS011;1648;50.022;8.424;2023-04-24T00:01:46;1.95;;;1.33;;
3271;SDS011;1648;50.022;8.424;2023-04-24T00:06:47;3.97;;;1.67;;
3271;SDS011;1648;50.022;8.424;2023-04-24T00:11:50;3.70;;;1.50;;
3271;SDS011;1648;50.022;8.424;2023-04-24T00:16:55;4.45;;;1.60;;
3271;SDS011;1648;50.022;8.424;2023-04-24T00:21:57;5.45;;;2.05;;
3271;SDS011;1648;50.022;8.424;2023-04-24T00:27:00;3.95;;;1.50;;
3271;SDS011;1648;50.022;8.424;2023-04-24T00:32:01;3.67;;;1.48;;
3271;SDS011;1648;50.022;8.424;2023-04-24T00:37:03;3.28;;;2.05;;
3271;SDS011;1648;50.022;8.424;2023-04-24T00:42:09;3.33;;;1.58;;
3271;SDS011;1648;50.022;8.424;2023-04-24T00:47:10;5.20;;;1.60;;
3271;SDS011;1648;50.022;8.424;2023-04-24T00:52:13;4.30;;;1.58;;
3271;SDS011;1648;50.022;8.424;2023-04-24T00:57:16;3.40;;;1.63;;
3271;SDS011;1648;50.022;8.424;2023-04-24T01:02:18;1.83;;;1.63;;
3271;SDS011;1648;50.022;8.424;2023-04-24T01:07:21;4.05;;;2.20;;
3271;SDS011;1648;50.022;8.424;2023-04-24T01:12:27;5.13;;;1.92;;
3271;SDS011;1648;50.022;8.424;2023-04-24T01:17:29;2.22;;;1.85;;
3271;SDS011;1648;50.022;8.424;2023-04-24T01:22:33;2.30;;;1.85;;
3271;SDS011;1648;50.022;8.424;2023-04-24T01:27:35;3.20;;;1.80;;
3271;SDS011;1648;50.022;8.424;2023-04-24T01:32:44;4.22;;;2.15;;
3271;SDS011;1648;50.022;8.424;2023-04-24T01:37:47;4.70;;;2.20;;
3271;SDS011;1648;50.022;8.424;2023-04-24T01:42:49;3.28;;;1.73;;
3271;SDS011;1648;50.022;8.424;2023-04-24T01:47:51;2.85;;;1.80;;
3271;SDS011;1648;50.022;8.424;2023-04-24T01:52:55;4.10;;;2.20;;
3271;SDS011;1648;50.022;8.424;2023-04-24T01:57:56;2.95;;;1.83;;
3271;SDS011;1648;50.022;8.424;2023-04-24T02:02:59;5.15;;;2.00;;
3271;SDS011;1648;50.022;8.424;2023-04-24T02:08:03;2.65;;;1.70;;
3271;SDS011;1648;50.022;8.424;2023-04-24T02:13:05;4.57;;;1.70;;
3271;SDS011;1648;50.022;8.424;2023-04-24T02:18:06;4.03;;;1.50;;
3271;SDS011;1648;50.022;8.424;2023-04-24T02:23:09;6.03;;;2.25;;
3271;SDS011;1648;50.022;8.424;2023-04-24T02:28:12;2.13;;;1.70;;
3271;SDS011;1648;50.022;8.424;2023-04-24T02:33:14;2.72;;;1.75;;
3271;SDS011;1648;50.022;8.424;2023-04-24T02:38:17;5.63;;;2.40;;
3271;SDS011;1648;50.022;8.424;2023-04-24T02:43:18;3.38;;;1.60;;
3271;SDS011;1648;50.022;8.424;2023-04-24T02:48:20;2.90;;;1.73;;
3271;SDS011;1648;50.022;8.424;2023-04-24T02:53:23;3.88;;;1.80;;
3271;SDS011;1648;50.022;8.424;2023-04-24T02:58:25;4.18;;;2.15;;
3271;SDS011;1648;50.022;8.424;2023-04-24T03:03:26;3.35;;;2.45;;
3271;SDS011;1648;50.022;8.424;2023-04-24T03:08:30;2.85;;;1.67;;
3271;SDS011;1648;50.022;8.424;2023-04-24T03:13:31;2.47;;;1.58;;
3271;SDS011;1648;50.022;8.424;2023-04-24T03:18:33;4.43;;;1.65;;
3271;SDS011;1648;50.022;8.424;2023-04-24T03:23:36;4.30;;;1.50;;
3271;SDS011;1648;50.022;8.424;2023-04-24T03:28:43;3.55;;;1.70;;
3271;SDS011;1648;50.022;8.424;2023-04-24T03:33:45;3.47;;;1.52;;
3271;SDS011;1648;50.022;8.424;2023-04-24T03:38:48;5.75;;;3.35;;
3271;SDS011;1648;50.022;8.424;2023-04-24T03:44:00;3.50;;;1.40;;
3271;SDS011;1648;50.022;8.424;2023-04-24T03:49:01;2.65;;;1.80;;
3271;SDS011;1648;50.022;8.424;2023-04-24T03:54:09;1.75;;;1.30;;
3271;SDS011;1648;50.022;8.424;2023-04-24T03:59:13;5.03;;;3.13;;
3271;SDS011;1648;50.022;8.424;2023-04-24T04:04:18;4.00;;;1.60;;
3271;SDS011;1648;50.022;8.424;2023-04-24T04:09:21;2.70;;;1.95;;
3271;SDS011;1648;50.022;8.424;2023-04-24T04:14:23;3.00;;;2.10;;
3271;SDS011;1648;50.022;8.424;2023-04-24T04:19:25;1.90;;;1.70;;
3271;SDS011;1648;50.022;8.424;2023-04-24T04:24:29;3.83;;;2.80;;
3271;SDS011;1648;50.022;8.424;2023-04-24T04:29:32;3.55;;;3.22;;
3271;SDS011;1648;50.022;8.424;2023-04-24T04:34:35;3.03;;;2.17;;
3271;SDS011;1648;50.022;8.424;2023-04-24T04:39:39;2.60;;;2.40;;
3271;SDS011;1648;50.022;8.424;2023-04-24T04:44:45;3.10;;;2.30;;
3271;SDS011;1648;50.022;8.424;2023-04-24T04:49:56;2.45;;;2.25;;
3271;SDS011;1648;50.022;8.424;2023-04-24T04:55:02;7.25;;;4.05;;
3271;SDS011;1648;50.022;8.424;2023-04-24T05:00:24;3.60;;;3.03;;
3271;SDS011;1648;50.022;8.424;2023-04-24T05:05:27;4.28;;;3.15;;
3271;SDS011;1648;50.022;8.424;2023-04-24T05:10:30;5.22;;;3.90;;
3271;SDS011;1648;50.022;8.424;2023-04-24T05:15:32;5.18;;;3.50;;
3271;SDS011;1648;50.022;8.424;2023-04-24T05:20:35;5.45;;;3.72;;
3271;SDS011;1648;50.022;8.424;2023-04-24T05:25:38;4.75;;;3.10;;
3271;SDS011;1648;50.022;8.424;2023-04-24T05:30:43;5.57;;;3.58;;
3271;SDS011;1648;50.022;8.424;2023-04-24T05:35:46;3.65;;;3.05;;
3271;SDS011;1648;50.022;8.424;2023-04-24T05:40:51;3.85;;;3.22;;
3271;SDS011;1648;50.022;8.424;2023-04-24T05:45:52;5.85;;;4.05;;
3271;SDS011;1648;50.022;8.424;2023-04-24T05:50:57;4.10;;;3.25;;
3271;SDS011;1648;50.022;8.424;2023-04-24T05:56:00;4.93;;;3.55;;
3271;SDS011;1648;50.022;8.424;2023-04-24T06:01:03;4.90;;;3.42;;
3271;SDS011;1648;50.022;8.424;2023-04-24T06:06:05;5.18;;;3.50;;
3271;SDS011;1648;50.022;8.424;2023-04-24T06:11:11;7.00;;;3.53;;
3271;SDS011;1648;50.022;8.424;2023-04-24T06:16:13;10.70;;;4.13;;
3271;SDS011;1648;50.022;8.424;2023-04-24T06:21:20;4.93;;;3.92;;
3271;SDS011;1648;50.022;8.424;2023-04-24T06:26:23;5.15;;;3.95;;
3271;SDS011;1648;50.022;8.424;2023-04-24T06:31:25;4.57;;;3.83;;
3271;SDS011;1648;50.022;8.424;2023-04-24T06:36:28;4.97;;;3.90;;
3271;SDS011;1648;50.022;8.424;2023-04-24T06:41:31;6.35;;;4.07;;
3271;SDS011;1648;50.022;8.424;2023-04-24T06:46:32;5.68;;;4.30;;
3271;SDS011;1648;50.022;8.424;2023-04-24T06:51:34;8.93;;;4.00;;
3271;SDS011;1648;50.022;8.424;2023-04-24T06:56:37;5.10;;;4.60;;
3271;SDS011;1648;50.022;8.424;2023-04-24T07:01:39;7.30;;;5.00;;
3271;SDS011;1648;50.022;8.424;2023-04-24T07:06:40;7.50;;;4.88;;
3271;SDS011;1648;50.022;8.424;2023-04-24T07:11:43;5.00;;;4.30;;
3271;SDS011;1648;50.022;8.424;2023-04-24T07:16:48;4.35;;;3.75;;
3271;SDS011;1648;50.022;8.424;2023-04-24T07:21:50;10.73;;;4.43;;
3271;SDS011;1648;50.022;8.424;2023-04-24T07:26:56;5.03;;;3.63;;
3271;SDS011;1648;50.022;8.424;2023-04-24T07:31:59;5.85;;;3.80;;
3271;SDS011;1648;50.022;8.424;2023-04-24T07:37:04;4.78;;;3.97;;
3271;SDS011;1648;50.022;8.424;2023-04-24T07:42:07;4.93;;;3.72;;
3271;SDS011;1648;50.022;8.424;2023-04-24T07:47:10;5.70;;;3.65;;
3271;SDS011;1648;50.022;8.424;2023-04-24T07:52:14;6.13;;;3.70;;
3271;SDS011;1648;50.022;8.424;2023-04-24T07:57:17;4.45;;;3.30;;
3271;SDS011;1648;50.022;8.424;2023-04-24T08:02:22;4.60;;;3.08;;
3271;SDS011;1648;50.022;8.424;2023-04-24T08:07:26;3.55;;;3.15;;
3271;SDS011;1648;50.022;8.424;2023-04-24T08:12:29;5.95;;;3.42;;
3271;SDS011;1648;50.022;8.424;2023-04-24T08:17:32;4.78;;;3.10;;
3271;SDS011;1648;50.022;8.424;2023-04-24T08:22:33;4.78;;;3.45;;
3271;SDS011;1648;50.022;8.424;2023-04-24T08:27:36;5.05;;;3.50;;
3271;SDS011;1648;50.022;8.424;2023-04-24T08:32:39;4.75;;;3.70;;
3271;SDS011;1648;50.022;8.424;2023-04-24T08:37:41;3.67;;;3.22;;
3271;SDS011;1648;50.022;8.424;2023-04-24T08:42:44;4.78;;;3.38;;
3271;SDS011;1648;50.022;8.424;2023-04-24T08:47:48;3.10;;;2.90;;
3271;SDS011;1648;50.022;8.424;2023-04-24T08:52:51;3.33;;;2.67;;
3271;SDS011;1648;50.022;8.424;2023-04-24T08:57:54;7.20;;;3.22;;
3271;SDS011;1648;50.022;8.424;2023-04-24T09:09:37;7.80;;;3.50;;
3271;SDS011;1648;50.022;8.424;2023-04-24T09:14:41;6.03;;;3.75;;
3271;SDS011;1648;50.022;8.424;2023-04-24T09:19:43;5.30;;;3.20;;
3271;SDS011;1648;50.022;8.424;2023-04-24T09:24:45;5.20;;;3.30;;
3271;SDS011;1648;50.022;8.424;2023-04-24T09:29:54;4.45;;;3.20;;
3271;SDS011;1648;50.022;8.424;2023-04-24T09:35:06;4.80;;;2.80;;
3271;SDS011;1648;50.022;8.424;2023-04-24T09:40:09;4.90;;;2.90;;
3271;SDS011;1648;50.022;8.424;2023-04-24T09:45:17;3.08;;;2.58;;
3271;SDS011;1648;50.022;8.424;2023-04-24T09:50:19;4.78;;;2.33;;
3271;SDS011;1648;50.022;8.424;2023-04-24T09:55:22;3.70;;;2.03;;
3271;SDS011;1648;50.022;8.424;2023-04-24T10:00:26;2.60;;;2.40;;
3271;SDS011;1648;50.022;8.424;2023-04-24T10:05:29;2.95;;;2.33;;
3271;SDS011;1648;50.022;8.424;2023-04-24T10:10:32;4.60;;;3.30;;
3271;SDS011;1648;50.022;8.424;2023-04-24T10:15:36;3.60;;;3.00;;
3271;SDS011;1648;50.022;8.424;2023-04-24T10:20:38;3.58;;;2.92;;
3271;SDS011;1648;50.022;8.424;2023-04-24T10:25:41;4.55;;;3.22;;
3271;SDS011;1648;50.022;8.424;2023-04-24T10:30:44;3.03;;;2.80;;
3271;SDS011;1648;50.022;8.424;2023-04-24T10:35:46;5.75;;;3.30;;
3271;SDS011;1648;50.022;8.424;2023-04-24T10:40:49;3.60;;;2.55;;
3271;SDS011;1648;50.022;8.424;2023-04-24T10:46:02;3.85;;;2.63;;
3271;SDS011;1648;50.022;8.424;2023-04-24T10:51:05;3.45;;;2.80;;
3271;SDS011;1648;50.022;8.424;2023-04-24T10:56:07;3.80;;;3.20;;
3271;SDS011;1648;50.022;8.424;2023-04-24T11:01:22;3.63;;;2.65;;
3271;SDS011;1648;50.022;8.424;2023-04-24T11:06:28;2.10;;;1.90;;
3271;SDS011;1648;50.022;8.424;2023-04-24T11:11:32;4.60;;;2.20;;
3271;SDS011;1648;50.022;8.424;2023-04-24T11:16:36;2.67;;;1.80;;
3271;SDS011;1648;50.022;8.424;2023-04-24T11:21:41;1.33;;;1.27;;
3271;SDS011;1648;50.022;8.424;2023-04-24T11:26:43;1.85;;;1.65;;
3271;SDS011;1648;50.022;8.424;2023-04-24T11:31:47;2.10;;;1.92;;
3271;SDS011;1648;50.022;8.424;2023-04-24T11:36:49;4.25;;;2.28;;
3271;SDS011;1648;50.022;8.424;2023-04-24T11:41:50;1.30;;;1.10;;
3271;SDS011;1648;50.022;8.424;2023-04-24T11:46:55;0.98;;;0.98;;
3271;SDS011;1648;50.022;8.424;2023-04-24T11:51:57;2.97;;;1.70;;
3271;SDS011;1648;50.022;8.424;2023-04-24T11:57:03;3.40;;;1.77;;
3271;SDS011;1648;50.022;8.424;2023-04-24T12:02:07;2.88;;;2.10;;
3271;SDS011;1648;50.022;8.424;2023-04-24T12:07:09;5.40;;;2.70;;
3271;SDS011;1648;50.022;8.424;2023-04-24T12:12:11;3.92;;;2.58;;
3271;SDS011;1648;50.022;8.424;2023-04-24T12:17:15;4.82;;;2.50;;
3271;SDS011;1648;50.022;8.424;2023-04-24T12:22:17;2.65;;;2.45;;
3271;SDS011;1648;50.022;8.424;2023-04-24T12:27:19;6.47;;;3.42;;
3271;SDS011;1648;50.022;8.424;2023-04-24T12:32:22;6.40;;;4.40;;
3271;SDS011;1648;50.022;8.424;2023-04-24T12:37:26;10.18;;;5.38;;
3271;SDS011;1648;50.022;8.424;2023-04-24T12:42:28;9.93;;;5.15;;
3271;SDS011;1648;50.022;8.424;2023-04-24T12:47:32;7.90;;;4.43;;
3271;SDS011;1648;50.022;8.424;2023-04-24T12:52:34;8.77;;;4.22;;
3271;SDS011;1648;50.022;8.424;2023-04-24T12:57:37;4.72;;;3.75;;
3271;SDS011;1648;50.022;8.424;2023-04-24T13:02:41;7.32;;;3.60;;
3271;SDS011;1648;50.022;8.424;2023-04-24T13:07:43;4.65;;;3.60;;
3271;SDS011;1648;50.022;8.424;2023-04-24T13:12:45;5.68;;;3.65;;
3271;SDS011;1648;50.022;8.424;2023-04-24T13:17:48;6.88;;;3.92;;
3271;SDS011;1648;50.022;8.424;2023-04-24T13:22:50;5.50;;;3.28;;
3271;SDS011;1648;50.022;8.424;2023-04-24T13:27:52;5.20;;;3.40;;
3271;SDS011;1648;50.022;8.424;2023-04-24T13:32:55;5.15;;;3.22;;
3271;SDS011;1648;50.022;8.424;2023-04-24T13:37:57;7.55;;;3.72;;
3271;SDS011;1648;50.022;8.424;2023-04-24T13:42:58;6.75;;;3.97;;
3271;SDS011;1648;50.022;8.424;2023-04-24T13:48:01;5.35;;;4.10;;
3271;SDS011;1648;50.022;8.424;2023-04-24T13:53:03;9.10;;;4.90;;
3271;SDS011;1648;50.022;8.424;2023-04-24T13:58:05;5.32;;;4.20;;
3271;SDS011;1648;50.022;8.424;2023-04-24T14:03:08;6.60;;;4.53;;
3271;SDS011;1648;50.022;8.424;2023-04-24T14:08:10;6.55;;;4.18;;
3271;SDS011;1648;50.022;8.424;2023-04-24T14:13:12;6.00;;;4.45;;
3271;SDS011;1648;50.022;8.424;2023-04-24T14:18:15;4.97;;;3.70;;
3271;SDS011;1648;50.022;8.424;2023-04-24T14:23:16;7.45;;;3.97;;
3271;SDS011;1648;50.022;8.424;2023-04-24T14:28:19;6.82;;;3.83;;
3271;SDS011;1648;50.022;8.424;2023-04-24T14:33:22;6.05;;;3.75;;
3271;SDS011;1648;50.022;8.424;2023-04-24T14:38:24;4.47;;;3.40;;
3271;SDS011;1648;50.022;8.424;2023-04-24T14:43:25;5.30;;;3.85;;
3271;SDS011;1648;50.022;8.424;2023-04-24T14:48:28;5.75;;;4.00;;
3271;SDS011;1648;50.022;8.424;2023-04-24T14:53:30;5.10;;;3.53;;
3271;SDS011;1648;50.022;8.424;2023-04-24T14:58:31;6.15;;;4.00;;
3271;SDS011;1648;50.022;8.424;2023-04-24T15:03:35;7.07;;;4.00;;
3271;SDS011;1648;50.022;8.424;2023-04-24T15:08:37;6.15;;;3.83;;
3271;SDS011;1648;50.022;8.424;2023-04-24T15:13:38;12.60;;;3.85;;
3271;SDS011;1648;50.022;8.424;2023-04-24T15:18:41;6.05;;;3.85;;
3271;SDS011;1648;50.022;8.424;2023-04-24T15:23:43;8.88;;;5.03;;
3271;SDS011;1648;50.022;8.424;2023-04-24T15:28:45;6.57;;;3.90;;
3271;SDS011;1648;50.022;8.424;2023-04-24T15:33:48;10.90;;;5.50;;
3271;SDS011;1648;50.022;8.424;2023-04-24T15:38:50;6.03;;;4.63;;
3271;SDS011;1648;50.022;8.424;2023-04-24T15:43:52;9.25;;;5.82;;
3271;SDS011;1648;50.022;8.424;2023-04-24T15:48:55;15.75;;;8.38;;
3271;SDS011;1648;50.022;8.424;2023-04-24T15:53:56;10.48;;;6.22;;
3271;SDS011;1648;50.022;8.424;2023-04-24T15:58:58;7.38;;;4.60;;
3271;SDS011;1648;50.022;8.424;2023-04-24T16:04:01;7.82;;;5.05;;
3271;SDS011;1648;50.022;8.424;2023-04-24T16:09:03;6.78;;;4.25;;
3271;SDS011;1648;50.022;8.424;2023-04-24T16:14:05;6.57;;;5.15;;
3271;SDS011;1648;50.022;8.424;2023-04-24T16:19:10;13.95;;;8.43;;
3271;SDS011;1648;50.022;8.424;2023-04-24T16:24:12;5.50;;;4.35;;
3271;SDS011;1648;50.022;8.424;2023-04-24T16:29:13;9.55;;;6.00;;
3271;SDS011;1648;50.022;8.424;2023-04-24T16:34:17;7.00;;;3.85;;
3271;SDS011;1648;50.022;8.424;2023-04-24T16:39:18;7.38;;;3.80;;
3271;SDS011;1648;50.022;8.424;2023-04-24T16:44:20;5.07;;;4.22;;
3271;SDS011;1648;50.022;8.424;2023-04-24T16:49:23;4.72;;;4.15;;
3271;SDS011;1648;50.022;8.424;2023-04-24T16:54:25;5.78;;;3.47;;
3271;SDS011;1648;50.022;8.424;2023-04-24T16:59:27;5.53;;;4.20;;
3271;SDS011;1648;50.022;8.424;2023-04-24T17:04:30;8.60;;;6.15;;
3271;SDS011;1648;50.022;8.424;2023-04-24T17:09:31;5.05;;;3.83;;
3271;SDS011;1648;50.022;8.424;2023-04-24T17:14:33;6.93;;;3.35;;
3271;SDS011;1648;50.022;8.424;2023-04-24T17:19:37;5.13;;;3.40;;
3271;SDS011;1648;50.022;8.424;2023-04-24T17:24:39;15.35;;;12.00;;
3271;SDS011;1648;50.022;8.424;2023-04-24T17:29:41;5.07;;;3.83;;
3271;SDS011;1648;50.022;8.424;2023-04-24T17:34:44;6.13;;;4.43;;
3271;SDS011;1648;50.022;8.424;2023-04-24T17:39:46;5.65;;;4.28;;
3271;SDS011;1648;50.022;8.424;2023-04-24T17:44:47;9.75;;;4.72;;
3271;SDS011;1648;50.022;8.424;2023-04-24T17:49:50;5.10;;;4.00;;
3271;SDS011;1648;50.022;8.424;2023-04-24T17:54:52;6.90;;;4.10;;
3271;SDS011;1648;50.022;8.424;2023-04-24T17:59:54;5.18;;;4.15;;
3271;SDS011;1648;50.022;8.424;2023-04-24T18:04:57;6.72;;;4.20;;
3271;SDS011;1648;50.022;8.424;2023-04-24T18:09:59;10.30;;;5.22;;
3271;SDS011;1648;50.022;8.424;2023-04-24T18:15:00;8.48;;;6.28;;
3271;SDS011;1648;50.022;8.424;2023-04-24T18:20:16;6.90;;;6.15;;
3271;SDS011;1648;50.022;8.424;2023-04-24T18:25:18;8.98;;;6.05;;
3271;SDS011;1648;50.022;8.424;2023-04-24T18:30:21;7.25;;;6.15;;
3271;SDS011;1648;50.022;8.424;2023-04-24T18:35:24;8.30;;;6.50;;
3271;SDS011;1648;50.022;8.424;2023-04-24T18:40:26;8.57;;;5.28;;
3271;SDS011;1648;50.022;8.424;2023-04-24T18:45:28;6.15;;;4.63;;
3271;SDS011;1648;50.022;8.424;2023-04-24T18:50:31;8.43;;;7.25;;
3271;SDS011;1648;50.022;8.424;2023-04-24T18:55:33;7.63;;;5.28;;
3271;SDS011;1648;50.022;8.424;2023-04-24T19:00:34;9.98;;;5.43;;
3271;SDS011;1648;50.022;8.424;2023-04-24T19:05:38;7.38;;;5.18;;
3271;SDS011;1648;50.022;8.424;2023-04-24T19:10:39;14.73;;;9.27;;
3271;SDS011;1648;50.022;8.424;2023-04-24T19:15:41;17.00;;;10.00;;
3271;SDS011;1648;50.022;8.424;2023-04-24T19:20:44;19.98;;;13.57;;
3271;SDS011;1648;50.022;8.424;2023-04-24T19:25:46;12.02;;;8.70;;
3271;SDS011;1648;50.022;8.424;2023-04-24T19:30:48;11.80;;;9.00;;
3271;SDS011;1648;50.022;8.424;2023-04-24T19:35:51;15.50;;;9.85;;
3271;SDS011;1648;50.022;8.424;2023-04-24T19:40:53;14.73;;;9.85;;
3271;SDS011;1648;50.022;8.424;2023-04-24T19:45:54;12.88;;;8.80;;
3271;SDS011;1648;50.022;8.424;2023-04-24T19:50:58;12.90;;;8.77;;
3271;SDS011;1648;50.022;8.424;2023-04-24T19:55:59;10.25;;;7.75;;
3271;SDS011;1648;50.022;8.424;2023-04-24T20:01:01;20.27;;;12.25;;
3271;SDS011;1648;50.022;8.424;2023-04-24T20:06:04;12.93;;;8.10;;
3271;SDS011;1648;50.022;8.424;2023-04-24T20:11:06;13.52;;;9.52;;
3271;SDS011;1648;50.022;8.424;2023-04-24T20:16:08;18.35;;;12.20;;
3271;SDS011;1648;50.022;8.424;2023-04-24T20:21:13;16.55;;;11.63;;
3271;SDS011;1648;50.022;8.424;2023-04-24T20:26:15;14.43;;;9.65;;
3271;SDS011;1648;50.022;8.424;2023-04-24T20:31:16;9.95;;;7.28;;
3271;SDS011;1648;50.022;8.424;2023-04-24T20:36:20;10.07;;;7.10;;
3271;SDS011;1648;50.022;8.424;2023-04-24T20:41:21;12.93;;;7.50;;
3271;SDS011;1648;50.022;8.424;2023-04-24T20:46:23;10.65;;;8.15;;
3271;SDS011;1648;50.022;8.424;2023-04-24T20:51:26;10.82;;;8.57;;
3271;SDS011;1648;50.022;8.424;2023-04-24T20:56:28;16.10;;;8.27;;
3271;SDS011;1648;50.022;8.424;2023-04-24T21:01:30;13.80;;;9.18;;
3271;SDS011;1648;50.022;8.424;2023-04-24T21:06:33;10.63;;;8.43;;
3271;SDS011;1648;50.022;8.424;2023-04-24T21:11:35;10.90;;;7.53;;
3271;SDS011;1648;50.022;8.424;2023-04-24T21:16:36;10.80;;;7.18;;
3271;SDS011;1648;50.022;8.424;2023-04-24T21:21:39;10.63;;;7.70;;
3271;SDS011;1648;50.022;8.424;2023-04-24T21:26:41;12.90;;;9.13;;
3271;SDS011;1648;50.022;8.424;2023-04-24T21:31:43;12.90;;;9.95;;
3271;SDS011;1648;50.022;8.424;2023-04-24T21:36:46;16.60;;;10.57;;
3271;SDS011;1648;50.022;8.424;2023-04-24T21:41:48;10.52;;;8.43;;
3271;SDS011;1648;50.022;8.424;2023-04-24T21:46:50;18.55;;;10.63;;
3271;SDS011;1648;50.022;8.424;2023-04-24T21:51:53;13.35;;;10.02;;
3271;SDS011;1648;50.022;8.424;2023-04-24T21:56:54;16.10;;;10.93;;
3271;SDS011;1648;50.022;8.424;2023-04-24T22:01:56;13.85;;;9.55;;
3271;SDS011;1648;50.022;8.424;2023-04-24T22:06:59;11.63;;;6.90;;
3271;SDS011;1648;50.022;8.424;2023-04-24T22:12:01;11.55;;;8.73;;
3271;SDS011;1648;50.022;8.424;2023-04-24T22:17:03;12.35;;;8.13;;
3271;SDS011;1648;50.022;8.424;2023-04-24T22:22:06;14.57;;;9.85;;
3271;SDS011;1648;50.022;8.424;2023-04-24T22:27:08;12.55;;;8.77;;
3271;SDS011;1648;50.022;8.424;2023-04-24T22:32:10;13.57;;;8.73;;
3271;SDS011;1648;50.022;8.424;2023-04-24T22:37:13;13.73;;;9.25;;
3271;SDS011;1648;50.022;8.424;2023-04-24T22:42:15;10.52;;;7.80;;
3271;SDS011;1648;50.022;8.424;2023-04-24T22:47:16;16.27;;;9.70;;
3271;SDS011;1648;50.022;8.424;2023-04-24T22:52:19;11.85;;;8.52;;
3271;SDS011;1648;50.022;8.424;2023-04-24T22:57:21;11.05;;;7.57;;
3271;SDS011;1648;50.022;8.424;2023-04-24T23:02:23;9.00;;;6.93;;
3271;SDS011;1648;50.022;8.424;2023-04-24T23:07:26;8.43;;;6.55;;
3271;SDS011;1648;50.022;8.424;2023-04-24T23:12:28;7.60;;;5.78;;
3271;SDS011;1648;50.022;8.424;2023-04-24T23:17:29;6.80;;;5.35;;
3271;SDS011;1648;50.022;8.424;2023-04-24T23:22:32;6.38;;;5.32;;
3271;SDS011;1648;50.022;8.424;2023-04-24T23:27:34;8.02;;;6.00;;
3271;SDS011;1648;50.022;8.424;2023-04-24T23:32:36;6.22;;;4.75;;
3271;SDS011;1648;50.022;8.424;2023-04-24T23:37:39;6.15;;;4.75;;
3271;SDS011;1648;50.022;8.424;2023-04-24T23:42:40;5.97;;;5.00;;
3271;SDS011;1648;50.022;8.424;2023-04-24T23:47:42;5.38;;;4.45;;
3271;SDS011;1648;50.022;8.424;2023-04-24T23:52:45;6.40;;;4.90;;
3271;SDS011;1648;50.022;8.424;2023-04-24T23:57:47;9.20;;;5.32;;
